Time;durP1;ratioP1;P1;durP2;ratioP2;P2;SDS_P1;SDS_P2;PMS_P1;PMS_P2;Temp;Humidity;BMP_temperature;BMP_pressure;BME280_temperature;BME280_humidity;BME280_pressure;Samples;Min_cycle;Max_cycle;Signal;HPM_P1;HPM_P2
2021/06/26 00:00:53;;;;;;;13.10;10.85;;;;;;;;;;5051064;28;20103;-77
2021/06/26 00:03:20;;;;;;;15.43;12.02;;;;;;;;;;5051589;28;20025;-77
2021/06/26 00:05:46;;;;;;;15.10;12.38;;;;;;;;;;5051603;28;20040;-77
2021/06/26 00:08:12;;;;;;;14.20;11.48;;;;;;;;;;5051493;28;20048;-76
2021/06/26 00:10:38;;;;;;;14.25;11.77;;;;;;;;;;5050610;28;20111;-77
2021/06/26 00:13:04;;;;;;;16.20;11.60;;;;;;;;;;5051407;28;20095;-77
2021/06/26 00:15:31;;;;;;;21.27;12.80;;;;;;;;;;5051429;28;20025;-77
2021/06/26 00:17:57;;;;;;;17.73;11.45;;;;;;;;;;5051191;28;20029;-77
2021/06/26 00:20:23;;;;;;;20.02;12.30;;;;;;;;;;5050775;28;20040;-77
2021/06/26 00:22:49;;;;;;;19.77;12.10;;;;;;;;;;5051475;28;20095;-77
2021/06/26 00:25:15;;;;;;;19.55;13.05;;;;;;;;;;5051272;28;20031;-77
2021/06/26 00:27:41;;;;;;;17.55;13.40;;;;;;;;;;5051129;28;20405;-76
2021/06/26 00:30:07;;;;;;;23.00;13.25;;;;;;;;;;5050373;28;20082;-76
2021/06/26 00:32:33;;;;;;;17.13;11.88;;;;;;;;;;5051347;28;20053;-77
2021/06/26 00:34:59;;;;;;;19.85;13.00;;;;;;;;;;5051323;28;20655;-77
2021/06/26 00:37:25;;;;;;;22.38;14.00;;;;;;;;;;5052716;28;20037;-77
2021/06/26 00:39:51;;;;;;;19.23;13.68;;;;;;;;;;5054383;28;20029;-77
2021/06/26 00:42:17;;;;;;;21.02;13.90;;;;;;;;;;5054980;28;20389;-77
2021/06/26 00:44:43;;;;;;;19.20;13.85;;;;;;;;;;5054823;28;20032;-77
2021/06/26 00:47:12;;;;;;;22.50;14.80;;;;;;;;;;5053996;28;20025;-77
2021/06/26 00:49:42;;;;;;;18.20;13.90;;;;;;;;;;5054544;28;20370;-77
2021/06/26 00:52:08;;;;;;;20.80;13.52;;;;;;;;;;5054819;28;20445;-77
2021/06/26 00:54:35;;;;;;;24.17;13.15;;;;;;;;;;5054643;28;20108;-77
2021/06/26 00:57:01;;;;;;;20.55;13.48;;;;;;;;;;5054651;28;20489;-77
2021/06/26 00:59:28;;;;;;;17.85;12.50;;;;;;;;;;5053938;28;20403;-77
2021/06/26 01:01:54;;;;;;;20.48;13.15;;;;;;;;;;5054668;28;20031;-77
2021/06/26 01:04:20;;;;;;;22.83;13.82;;;;;;;;;;5054620;28;20048;-77
2021/06/26 01:06:46;;;;;;;17.35;12.15;;;;;;;;;;5053224;28;20029;-77
2021/06/26 01:09:12;;;;;;;16.08;12.48;;;;;;;;;;5053805;28;20028;-77
2021/06/26 01:11:38;;;;;;;21.30;13.18;;;;;;;;;;5054381;28;20056;-77
2021/06/26 01:14:04;;;;;;;23.35;15.25;;;;;;;;;;5054330;28;20017;-77
2021/06/26 01:16:30;;;;;;;17.75;13.10;;;;;;;;;;5054409;28;20025;-77
2021/06/26 01:18:56;;;;;;;18.27;13.32;;;;;;;;;;5054070;28;20032;-77
2021/06/26 01:21:23;;;;;;;20.65;13.13;;;;;;;;;;5042129;23;20050;-78
2021/06/26 01:23:54;;;;;;;20.27;13.05;;;;;;;;;;5019722;28;20053;-78
2021/06/26 01:26:21;;;;;;;21.38;13.15;;;;;;;;;;5022002;28;20026;-77
2021/06/26 01:28:47;;;;;;;19.90;13.23;;;;;;;;;;5029602;28;20029;-78
2021/06/26 01:31:13;;;;;;;15.85;12.63;;;;;;;;;;5014853;28;20089;-78
2021/06/26 01:33:39;;;;;;;15.95;11.80;;;;;;;;;;5002053;28;20022;-78
2021/06/26 01:36:05;;;;;;;16.40;13.00;;;;;;;;;;5000057;28;20029;-78
2021/06/26 01:38:31;;;;;;;19.83;13.73;;;;;;;;;;5001649;28;20026;-78
2021/06/26 01:40:57;;;;;;;16.17;12.50;;;;;;;;;;5000200;28;20050;-78
2021/06/26 01:43:23;;;;;;;17.10;12.63;;;;;;;;;;5001181;28;20030;-78
2021/06/26 01:45:49;;;;;;;19.80;12.18;;;;;;;;;;4997677;28;20034;-78
2021/06/26 01:48:15;;;;;;;18.00;12.32;;;;;;;;;;4999015;28;20031;-78
2021/06/26 19:52:10;;;;;;;8.90;6.22;;;22.00;99.90;;;;;;5134884;27;20536;-78
2021/06/26 19:54:35;;;;;;;8.88;6.63;;;21.30;99.90;;;;;;5135648;28;20099;-79
2021/06/26 19:57:01;;;;;;;7.32;6.18;;;21.10;99.90;;;;;;5129239;27;20399;-79
2021/06/26 19:59:28;;;;;;;10.68;6.68;;;21.10;99.90;;;;;;5123402;28;20088;-74
2021/06/26 20:01:55;;;;;;;9.27;6.28;;;20.60;99.90;;;;;;5121277;27;20054;-77
2021/06/26 20:04:20;;;;;;;8.02;6.43;;;20.60;99.90;;;;;;5119135;27;20496;-77
2021/06/26 20:06:46;;;;;;;8.73;6.43;;;20.60;99.90;;;;;;5118141;28;20042;-77
2021/06/26 20:09:11;;;;;;;14.38;7.20;;;20.60;99.90;;;;;;5117563;27;20032;-76
2021/06/26 20:11:37;;;;;;;9.30;7.07;;;20.50;99.90;;;;;;5118789;27;20020;-76
2021/06/26 20:14:03;;;;;;;14.75;8.43;;;20.50;99.90;;;;;;5117816;27;20035;-77
2021/06/26 20:16:28;;;;;;;11.25;8.82;;;20.40;99.90;;;;;;5118110;28;20028;-76
2021/06/26 20:18:54;;;;;;;10.13;7.07;;;20.30;99.90;;;;;;5112357;27;20529;-76
2021/06/26 20:21:20;;;;;;;9.88;6.90;;;20.30;99.90;;;;;;5114807;28;20039;-77
2021/06/26 20:23:46;;;;;;;10.77;7.10;;;20.20;99.90;;;;;;5123902;27;20108;-78
2021/06/26 20:26:11;;;;;;;9.50;6.85;;;20.10;99.90;;;;;;5122834;28;20038;-76
2021/06/26 20:28:37;;;;;;;8.13;7.20;;;20.10;99.90;;;;;;5122363;27;20031;-76
2021/06/26 20:31:04;;;;;;;8.50;7.38;;;20.10;99.90;;;;;;5122780;27;20460;-77
2021/06/26 20:33:29;;;;;;;8.00;6.72;;;20.00;99.90;;;;;;5122152;27;20114;-77
2021/06/26 20:35:55;;;;;;;8.90;7.25;;;19.90;99.90;;;;;;5123306;27;20586;-77
2021/06/26 20:38:21;;;;;;;13.85;8.45;;;19.80;99.90;;;;;;5122535;27;20480;-77
2021/06/26 20:40:47;;;;;;;10.82;7.50;;;19.70;99.90;;;;;;5122492;27;20484;-77
2021/06/26 20:43:15;;;;;;;8.18;7.35;;;19.70;99.90;;;;;;5122666;28;20019;-77
2021/06/26 20:45:41;;;;;;;9.27;7.43;;;19.60;99.90;;;;;;5122786;27;20023;-77
2021/06/26 20:48:07;;;;;;;8.77;7.88;;;19.50;99.90;;;;;;5122259;28;20107;-78
2021/06/26 20:50:39;;;;;;;12.48;7.60;;;19.40;99.90;;;;;;5126145;28;20088;-77
2021/06/26 20:53:06;;;;;;;8.13;6.90;;;19.30;99.90;;;;;;5123041;27;20042;-77
2021/06/26 20:55:32;;;;;;;9.02;7.10;;;19.20;99.90;;;;;;5125703;28;20028;-77
2021/06/26 20:57:57;;;;;;;9.88;6.57;;;19.10;99.90;;;;;;5120351;28;20024;-76
2021/06/26 21:00:23;;;;;;;8.10;7.30;;;19.10;99.90;;;;;;5117020;27;20034;-76
2021/06/26 21:05:37;;;;;;;10.02;8.38;;;19.20;99.90;;;;;;5887756;22;20073;-77
2021/06/26 21:08:02;;;;;;;8.35;7.53;;;19.00;99.90;;;;;;5011392;28;20030;-78
2021/06/26 21:10:28;;;;;;;10.40;7.40;;;18.90;99.90;;;;;;5005530;28;20115;-77
2021/06/26 21:12:54;;;;;;;18.42;9.35;;;18.80;99.90;;;;;;5005190;28;20401;-77
2021/06/26 21:15:20;;;;;;;9.18;8.25;;;18.80;99.90;;;;;;5005295;28;20806;-79
2021/06/26 21:17:46;;;;;;;10.07;7.93;;;18.70;99.90;;;;;;4997018;28;20029;-78
2021/06/26 21:20:13;;;;;;;11.88;9.27;;;18.70;99.90;;;;;;4997082;28;20106;-78
2021/06/26 21:22:39;;;;;;;11.60;8.07;;;18.70;99.90;;;;;;4996175;28;20057;-78
2021/06/26 21:25:07;;;;;;;11.98;9.02;;;18.70;99.90;;;;;;4998116;28;20048;-78
2021/06/26 21:27:33;;;;;;;13.05;8.35;;;18.80;99.90;;;;;;5011115;28;20125;-77
2021/06/26 21:29:58;;;;;;;13.50;9.63;;;18.70;99.90;;;;;;4995331;28;20091;-77
2021/06/26 21:32:24;;;;;;;10.93;8.00;;;18.70;99.90;;;;;;5004928;28;20433;-78
2021/06/26 21:34:51;;;;;;;9.65;8.45;;;18.70;99.90;;;;;;5017001;28;20026;-78
2021/06/26 21:37:16;;;;;;;11.23;8.23;;;19.10;99.90;;;;;;5016897;28;20030;-77
2021/06/26 21:39:42;;;;;;;9.38;8.18;;;19.00;99.90;;;;;;5016295;28;20052;-77
2021/06/26 21:42:08;;;;;;;9.25;7.43;;;19.20;99.90;;;;;;5016251;28;20435;-75
2021/06/26 21:44:34;;;;;;;9.35;7.70;;;19.40;99.90;;;;;;5016080;28;20034;-76
2021/06/26 21:47:00;;;;;;;10.65;8.13;;;19.60;99.90;;;;;;5015470;28;20069;-78
2021/06/26 21:49:25;;;;;;;8.70;7.65;;;19.60;99.90;;;;;;5015921;28;20109;-78
2021/06/26 21:51:51;;;;;;;11.65;8.52;;;19.70;99.90;;;;;;5031587;28;20080;-77
2021/06/26 21:54:17;;;;;;;11.18;8.07;;;19.70;99.90;;;;;;5031617;28;20025;-77
2021/06/26 21:56:46;;;;;;;9.68;8.10;;;19.60;99.90;;;;;;5015932;28;20108;-76
2021/06/26 21:59:12;;;;;;;10.70;8.30;;;19.70;99.90;;;;;;5015506;28;20026;-77
2021/06/26 22:01:38;;;;;;;8.93;7.57;;;19.50;99.90;;;;;;5014602;28;20033;-78
2021/06/26 22:04:04;;;;;;;10.50;7.75;;;19.50;99.90;;;;;;4998871;28;20453;-76
2021/06/26 22:06:30;;;;;;;11.77;8.18;;;19.30;99.90;;;;;;5016934;28;20169;-78
2021/06/26 22:08:56;;;;;;;9.15;8.10;;;19.50;99.90;;;;;;5015380;28;20025;-78
2021/06/26 22:11:22;;;;;;;9.38;8.13;;;19.40;99.90;;;;;;5015822;28;20033;-78
2021/06/26 22:13:49;;;;;;;11.82;8.18;;;19.50;99.90;;;;;;5013348;28;20026;-76
2021/06/26 22:16:15;;;;;;;9.13;8.07;;;19.60;99.90;;;;;;5013285;28;20109;-76
2021/06/26 22:18:42;;;;;;;10.25;8.50;;;19.40;99.90;;;;;;5028546;28;20487;-76
2021/06/26 22:21:10;;;;;;;11.75;7.85;;;19.50;99.90;;;;;;5013048;28;20096;-76
2021/06/26 22:23:36;;;;;;;11.02;8.48;;;20.00;99.90;;;;;;5013334;28;20512;-76
2021/06/26 22:26:02;;;;;;;11.27;8.23;;;19.40;99.90;;;;;;5013053;28;20088;-76
2021/06/26 22:28:28;;;;;;;9.98;8.80;;;19.40;99.90;;;;;;5013129;28;20037;-76
2021/06/26 22:30:55;;;;;;;10.38;8.70;;;19.30;99.90;;;;;;5012331;28;20031;-76
2021/06/26 22:33:20;;;;;;;12.30;9.27;;;19.30;99.90;;;;;;5013191;28;20082;-76
2021/06/26 22:35:47;;;;;;;10.88;8.25;;;19.20;99.90;;;;;;5013527;28;20064;-76
2021/06/26 22:38:13;;;;;;;10.57;9.13;;;19.10;99.90;;;;;;5013041;28;20110;-76
2021/06/26 22:40:39;;;;;;;10.88;8.75;;;18.90;99.90;;;;;;5012435;28;20036;-76
2021/06/26 22:43:06;;;;;;;10.75;8.65;;;19.10;99.90;;;;;;5012933;28;20084;-76
2021/06/26 22:45:32;;;;;;;11.23;9.38;;;18.70;99.90;;;;;;5012809;28;20062;-76
2021/06/26 22:47:58;;;;;;;10.55;9.43;;;18.70;99.90;;;;;;5012926;28;20037;-76
2021/06/26 22:50:25;;;;;;;11.18;9.10;;;18.70;99.90;;;;;;5027565;28;20038;-76
2021/06/26 22:52:52;;;;;;;10.95;9.07;;;18.60;99.90;;;;;;5013081;28;20029;-76
2021/06/26 22:55:19;;;;;;;10.65;9.18;;;18.70;99.90;;;;;;5012828;28;20390;-76
2021/06/26 22:57:46;;;;;;;11.05;8.75;;;18.60;99.90;;;;;;5012663;28;20022;-76
2021/06/26 23:00:17;;;;;;;11.20;9.27;;;18.50;99.90;;;;;;5011838;28;20080;-76
2021/06/26 23:02:43;;;;;;;12.20;9.55;;;18.50;99.90;;;;;;5013395;28;20045;-76
2021/06/26 23:05:10;;;;;;;11.30;10.02;;;18.60;99.90;;;;;;5013077;28;20491;-76
2021/06/26 23:07:35;;;;;;;11.07;9.15;;;18.40;99.90;;;;;;5012415;28;20586;-76
2021/06/26 23:10:04;;;;;;;10.85;8.88;;;18.30;99.90;;;;;;5011974;28;20057;-76
2021/06/26 23:12:29;;;;;;;11.30;9.38;;;18.40;99.90;;;;;;5012591;28;20537;-76
2021/06/26 23:14:55;;;;;;;12.57;9.70;;;18.40;99.90;;;;;;5012325;28;20112;-76
2021/06/26 23:17:21;;;;;;;12.15;10.07;;;18.30;99.90;;;;;;5025776;28;20022;-78
2021/06/26 23:19:47;;;;;;;10.57;8.70;;;18.40;99.90;;;;;;5024875;28;20026;-78
2021/06/26 23:22:13;;;;;;;10.95;9.75;;;18.10;99.90;;;;;;5018602;28;20040;-78
2021/06/26 23:24:39;;;;;;;11.57;8.68;;;18.70;99.90;;;;;;5013952;28;20034;-77
2021/06/26 23:27:05;;;;;;;12.65;8.75;;;18.10;99.90;;;;;;5014427;28;20460;-78
2021/06/26 23:29:31;;;;;;;13.88;10.23;;;18.10;99.90;;;;;;5013296;28;20541;-78
2021/06/26 23:31:56;;;;;;;13.57;9.20;;;18.20;99.90;;;;;;5013450;28;20065;-78
2021/06/26 23:34:22;;;;;;;14.30;10.07;;;18.10;99.90;;;;;;4999490;28;20113;-78
2021/06/26 23:36:48;;;;;;;10.93;9.48;;;18.10;99.90;;;;;;5015987;28;20026;-77
2021/06/26 23:39:13;;;;;;;13.25;8.95;;;18.10;99.90;;;;;;5013802;28;20034;-77
2021/06/26 23:41:39;;;;;;;15.25;10.02;;;18.10;99.90;;;;;;5013997;28;20573;-78
2021/06/26 23:44:05;;;;;;;12.05;9.93;;;18.30;99.90;;;;;;5012697;28;20048;-77
2021/06/26 23:46:31;;;;;;;12.60;9.73;;;18.10;99.90;;;;;;5013242;28;20030;-78
2021/06/26 23:48:57;;;;;;;13.35;9.52;;;18.10;99.90;;;;;;5013610;28;20589;-77
2021/06/26 23:51:22;;;;;;;11.05;9.13;;;18.80;99.90;;;;;;5029081;28;20101;-78
2021/06/26 23:53:49;;;;;;;11.65;9.02;;;18.40;99.90;;;;;;5015666;28;20030;-77
2021/06/26 23:56:15;;;;;;;10.02;8.95;;;18.90;99.90;;;;;;5020767;28;20479;-78
2021/06/26 23:58:42;;;;;;;10.52;8.77;;;18.40;99.90;;;;;;5013954;28;20030;-77
